Time;durP1;ratioP1;P1;durP2;ratioP2;P2;SDS_P1;SDS_P2;PMS_P1;PMS_P2;Temp;Humidity;BMP_temperature;BMP_pressure;BME280_temperature;BME280_humidity;BME280_pressure;Samples;Min_cycle;Max_cycle;Signal;HPM_P1;HPM_P2
2022/06/08 00:00:07;;;;;;;19.40;17.90;;;15.10;99.90;;;;;;5008351;28;20058;-79
2022/06/08 00:02:38;;;;;;;20.15;18.45;;;15.10;99.90;;;;;;5008374;28;20054;-78
2022/06/08 00:05:05;;;;;;;19.50;18.02;;;15.10;99.90;;;;;;4989228;28;20046;-78
2022/06/08 00:07:32;;;;;;;18.48;17.17;;;15.20;99.90;;;;;;5021707;28;20553;-78
2022/06/08 00:09:59;;;;;;;18.75;17.35;;;15.20;99.90;;;;;;5017307;28;20454;-78
2022/06/08 00:12:27;;;;;;;19.00;17.70;;;15.10;99.90;;;;;;5005499;28;20111;-78
2022/06/08 00:14:54;;;;;;;19.00;17.40;;;15.10;99.90;;;;;;4990100;28;20050;-77
2022/06/08 00:17:21;;;;;;;19.30;17.80;;;15.00;99.90;;;;;;5006108;28;20058;-78
2022/06/08 00:19:49;;;;;;;20.52;18.83;;;15.00;99.90;;;;;;5020309;28;20045;-78
2022/06/08 00:22:17;;;;;;;19.58;18.17;;;15.00;99.90;;;;;;5005127;28;20048;-78
2022/06/08 00:24:44;;;;;;;18.52;17.15;;;15.00;99.90;;;;;;5005617;28;20136;-78
2022/06/08 00:27:12;;;;;;;18.45;17.10;;;15.00;99.90;;;;;;5006782;28;20046;-78
2022/06/08 00:29:39;;;;;;;18.92;17.42;;;15.00;99.90;;;;;;5006366;28;20056;-78
2022/06/08 00:32:07;;;;;;;19.73;18.10;;;15.00;99.90;;;;;;5005610;28;20042;-78
2022/06/08 00:34:33;;;;;;;19.05;17.65;;;15.10;99.90;;;;;;5003722;28;20478;-78
2022/06/08 00:37:00;;;;;;;18.60;17.25;;;15.10;99.90;;;;;;5006293;28;20053;-78
2022/06/08 00:39:27;;;;;;;19.08;17.63;;;15.00;99.90;;;;;;5007556;28;20124;-79
2022/06/08 00:42:02;;;;;;;17.90;16.70;;;15.00;99.90;;;;;;5014613;28;20045;-78
2022/06/08 00:44:34;;;;;;;18.90;17.60;;;15.00;99.90;;;;;;5006646;28;20053;-78
2022/06/08 00:47:04;;;;;;;18.35;16.92;;;15.00;99.90;;;;;;5006914;28;20057;-79
2022/06/08 00:49:37;;;;;;;19.33;17.88;;;15.00;99.90;;;;;;4990990;28;20042;-78
2022/06/08 00:52:06;;;;;;;18.45;17.05;;;14.90;99.90;;;;;;5039405;28;20038;-78
2022/06/08 00:54:38;;;;;;;19.40;17.88;;;15.10;99.90;;;;;;5023703;28;20482;-79
2022/06/08 00:57:22;;;;;;;19.38;17.98;;;15.00;99.90;;;;;;5002047;28;20057;-78
2022/06/08 01:00:04;;;;;;;20.02;18.52;;;14.90;99.90;;;;;;5006269;28;20064;-79
2022/06/08 01:02:31;;;;;;;19.65;17.90;;;14.90;99.90;;;;;;5006129;28;20057;-79
2022/06/08 01:05:42;;;;;;;19.77;18.27;;;14.90;99.90;;;;;;4990135;28;20121;-79
2022/06/08 01:08:20;;;;;;;19.23;17.70;;;14.90;99.90;;;;;;4950064;28;20535;-78
2022/06/08 01:10:52;;;;;;;19.70;18.17;;;14.80;99.90;;;;;;4995741;28;20117;-79
2022/06/08 01:13:21;;;;;;;20.48;18.85;;;14.80;99.90;;;;;;4987770;28;20507;-79
2022/06/08 01:15:49;;;;;;;19.75;18.25;;;14.70;99.90;;;;;;4989570;28;20049;-79
2022/06/08 01:18:18;;;;;;;20.95;19.15;;;14.70;99.90;;;;;;5008551;28;20054;-79
2022/06/08 01:20:52;;;;;;;20.90;19.25;;;14.60;99.90;;;;;;5025982;28;20045;-79
2022/06/08 01:23:23;;;;;;;20.67;18.92;;;14.60;99.90;;;;;;5026302;28;20045;-79
2022/06/08 01:26:22;;;;;;;22.60;20.67;;;14.50;99.90;;;;;;5026015;28;20053;-79
2022/06/08 01:29:06;;;;;;;21.08;19.30;;;14.50;99.90;;;;;;4984142;28;20096;-79
2022/06/08 01:31:50;;;;;;;21.85;19.67;;;14.40;99.90;;;;;;5004921;28;20054;-79
2022/06/08 01:34:33;;;;;;;20.52;18.70;;;14.50;99.90;;;;;;5004189;28;20747;-79
2022/06/08 01:37:29;;;;;;;21.77;19.88;;;14.40;99.90;;;;;;5021917;28;20120;-79
2022/06/08 01:40:18;;;;;;;20.52;18.85;;;14.40;99.90;;;;;;4994309;28;20112;-79
2022/06/08 01:43:10;;;;;;;20.08;18.38;;;14.50;99.90;;;;;;4985154;28;20160;-79
2022/06/08 01:45:44;;;;;;;18.45;16.95;;;14.50;99.90;;;;;;5006773;28;20200;-79
2022/06/08 01:48:23;;;;;;;17.52;15.88;;;14.50;99.90;;;;;;4991337;28;20407;-79
2022/06/08 01:51:09;;;;;;;18.17;16.58;;;14.50;99.90;;;;;;5006233;28;20415;-78
2022/06/08 01:53:47;;;;;;;18.33;16.77;;;14.50;99.90;;;;;;4990297;28;20116;-78
2022/06/08 01:56:19;;;;;;;16.52;15.23;;;14.50;99.90;;;;;;5005510;28;20454;-79
2022/06/08 01:59:06;;;;;;;16.85;15.35;;;14.50;99.90;;;;;;5021866;28;20049;-79
2022/06/08 02:01:49;;;;;;;18.90;17.10;;;14.50;99.90;;;;;;4990399;28;20050;-79
2022/06/08 02:04:26;;;;;;;19.55;17.83;;;14.40;99.90;;;;;;5001339;28;20123;-79
2022/06/08 02:07:15;;;;;;;19.23;17.23;;;14.50;99.90;;;;;;5004387;28;20049;-78
2022/06/08 02:10:23;;;;;;;17.83;16.42;;;14.50;99.90;;;;;;5019871;28;20122;-78
2022/06/08 02:12:59;;;;;;;18.63;17.02;;;14.60;99.90;;;;;;4991825;28;20128;-79
2022/06/08 02:15:46;;;;;;;18.38;16.90;;;14.60;99.90;;;;;;5004448;28;20049;-79
2022/06/08 02:18:25;;;;;;;20.40;18.70;;;14.70;99.90;;;;;;4989207;28;20452;-78
2022/06/08 02:21:00;;;;;;;18.80;17.10;;;14.80;99.90;;;;;;4985170;28;20046;-79
2022/06/08 02:23:37;;;;;;;17.48;15.98;;;14.70;99.90;;;;;;4985930;28;20721;-79
2022/06/08 02:26:17;;;;;;;17.25;15.75;;;14.70;99.90;;;;;;4985776;28;20060;-79
2022/06/08 02:28:49;;;;;;;19.15;17.33;;;14.60;99.90;;;;;;5004473;28;20072;-79
2022/06/08 02:31:30;;;;;;;20.33;18.40;;;14.50;99.90;;;;;;5017151;28;20068;-79
2022/06/08 02:36:56;;;;;;;21.17;19.27;;;14.50;99.90;;;;;;4998530;28;20057;-78
2022/06/08 02:39:29;;;;;;;20.73;18.67;;;14.50;99.90;;;;;;5005883;28;20418;-78
2022/06/08 02:42:06;;;;;;;21.30;19.27;;;14.40;99.90;;;;;;4997700;28;20069;-79
2022/06/08 02:44:36;;;;;;;21.33;19.00;;;14.40;99.90;;;;;;5007100;28;20205;-78
2022/06/08 02:47:31;;;;;;;20.80;18.75;;;14.40;99.90;;;;;;5009317;28;20130;-78
2022/06/08 02:50:18;;;;;;;22.08;19.70;;;14.50;99.90;;;;;;4994384;28;20050;-78
2022/06/08 02:52:48;;;;;;;24.65;22.02;;;14.50;99.90;;;;;;4989299;28;20377;-79
2022/06/08 02:55:33;;;;;;;24.90;22.17;;;14.40;99.90;;;;;;5005268;28;20081;-79
2022/06/08 02:58:09;;;;;;;26.17;23.10;;;14.50;99.90;;;;;;4988454;28;20046;-79
2022/06/08 03:00:52;;;;;;;26.17;22.48;;;14.40;99.90;;;;;;5009076;28;20120;-79
2022/06/08 03:03:32;;;;;;;25.85;23.05;;;14.40;99.90;;;;;;5002935;28;20510;-79
2022/06/08 03:06:10;;;;;;;27.90;24.52;;;14.50;99.90;;;;;;4992574;28;20993;-79
2022/06/08 03:08:42;;;;;;;29.27;25.40;;;14.50;99.90;;;;;;5010499;28;20050;-79
2022/06/08 03:11:10;;;;;;;31.67;26.73;;;14.50;99.90;;;;;;5004530;28;20789;-78
2022/06/08 03:13:48;;;;;;;29.80;25.25;;;14.50;99.90;;;;;;5025411;28;20049;-79
2022/06/08 03:16:34;;;;;;;32.00;27.17;;;14.60;99.90;;;;;;5017332;28;20438;-79
2022/06/08 03:19:07;;;;;;;31.58;26.40;;;14.60;99.90;;;;;;5031463;28;20350;-79
2022/06/08 03:21:35;;;;;;;33.30;28.15;;;14.50;99.90;;;;;;5030238;28;20141;-79
2022/06/08 03:24:04;;;;;;;31.60;27.08;;;14.50;99.90;;;;;;5032039;28;20041;-78
2022/06/08 03:26:41;;;;;;;30.52;27.13;;;14.60;99.90;;;;;;5011428;28;20121;-79
2022/06/08 03:29:09;;;;;;;34.72;28.63;;;14.60;99.90;;;;;;5024394;28;20588;-78
2022/06/08 03:31:36;;;;;;;36.15;29.23;;;14.60;99.90;;;;;;5036470;28;20241;-79
2022/06/08 03:34:04;;;;;;;33.65;28.63;;;14.70;99.90;;;;;;5042692;28;20033;-78
2022/06/08 03:36:31;;;;;;;34.03;27.45;;;14.70;99.90;;;;;;5021197;28;20054;-79
2022/06/08 03:38:59;;;;;;;34.38;27.02;;;14.70;99.90;;;;;;5030197;28;20098;-78
2022/06/08 03:41:31;;;;;;;34.95;28.67;;;14.70;99.90;;;;;;5020113;28;20046;-79
2022/06/08 03:43:58;;;;;;;35.63;29.20;;;14.60;99.90;;;;;;5008965;28;20049;-79
2022/06/08 03:46:27;;;;;;;35.95;28.13;;;14.60;99.90;;;;;;5009886;28;20045;-79
2022/06/08 03:48:57;;;;;;;40.40;30.98;;;14.70;99.90;;;;;;4992334;28;20060;-78
2022/06/08 03:51:25;;;;;;;37.30;30.63;;;14.70;99.90;;;;;;5012647;28;20045;-79
2022/06/08 03:54:00;;;;;;;37.90;30.55;;;14.70;99.90;;;;;;5010899;28;20042;-79
2022/06/08 03:56:30;;;;;;;40.17;31.20;;;14.80;99.90;;;;;;5008498;28;20053;-79
2022/06/08 03:58:57;;;;;;;37.45;31.00;;;14.80;99.90;;;;;;5025128;28;20053;-79
2022/06/08 04:01:27;;;;;;;40.00;32.40;;;14.80;99.90;;;;;;5008153;28;20042;-79
2022/06/08 04:03:58;;;;;;;41.88;31.83;;;14.80;99.90;;;;;;4992781;28;20053;-79
2022/06/08 04:06:28;;;;;;;38.75;31.55;;;14.80;99.90;;;;;;5005334;28;20037;-79
2022/06/08 04:08:56;;;;;;;44.17;34.45;;;14.90;99.90;;;;;;5008438;28;20050;-79
2022/06/08 04:11:25;;;;;;;37.60;32.40;;;14.90;99.90;;;;;;5002854;28;20069;-79
2022/06/08 04:13:54;;;;;;;36.40;32.03;;;14.90;99.90;;;;;;4987790;28;20062;-79
2022/06/08 04:16:22;;;;;;;36.35;32.03;;;14.90;99.90;;;;;;5024553;28;20141;-80
2022/06/08 04:18:49;;;;;;;37.08;31.75;;;15.00;99.90;;;;;;4993587;28;20076;-79
2022/06/08 04:21:17;;;;;;;34.92;31.13;;;15.00;99.90;;;;;;5025833;28;20117;-79
2022/06/08 04:24:06;;;;;;;38.55;32.85;;;15.00;99.90;;;;;;5008032;28;20054;-79
2022/06/08 04:26:34;;;;;;;40.10;34.45;;;15.00;99.90;;;;;;5024550;28;20422;-80
2022/06/08 04:29:12;;;;;;;36.97;32.92;;;14.90;99.90;;;;;;5000909;28;20430;-79
2022/06/08 04:31:40;;;;;;;36.63;31.95;;;15.00;99.90;;;;;;5007632;28;20828;-79
2022/06/08 04:34:15;;;;;;;40.08;33.63;;;15.20;99.90;;;;;;4991660;28;20133;-79
2022/06/08 04:36:43;;;;;;;37.97;33.95;;;15.30;99.90;;;;;;5000297;28;20050;-79
2022/06/08 04:39:12;;;;;;;36.90;33.00;;;15.40;99.90;;;;;;4992368;28;20137;-79
2022/06/08 04:41:44;;;;;;;36.57;33.07;;;15.60;99.90;;;;;;5006912;28;20755;-79
2022/06/08 04:44:12;;;;;;;38.53;34.85;;;15.70;99.90;;;;;;5007830;28;20049;-79
2022/06/08 04:46:40;;;;;;;39.00;35.40;;;15.80;99.90;;;;;;5007909;28;20080;-79
2022/06/08 04:49:13;;;;;;;38.78;35.17;;;16.00;99.90;;;;;;5007100;28;20112;-77
2022/06/08 04:51:40;;;;;;;39.67;36.17;;;16.20;99.90;;;;;;5005705;28;20553;-78
2022/06/08 04:54:08;;;;;;;37.55;34.10;;;16.50;99.90;;;;;;5013468;28;20092;-78
2022/06/08 04:56:38;;;;;;;39.47;36.05;;;16.60;99.90;;;;;;5014983;28;20072;-78
2022/06/08 04:59:06;;;;;;;43.15;38.97;;;16.80;99.90;;;;;;4999418;28;20038;-79
2022/06/08 05:01:36;;;;;;;40.90;37.15;;;16.80;99.90;;;;;;4989375;28;20143;-78
2022/06/08 05:04:06;;;;;;;40.00;35.85;;;16.70;99.90;;;;;;5006063;28;20049;-78
2022/06/08 05:06:33;;;;;;;38.83;35.22;;;16.70;99.90;;;;;;5006778;28;20050;-77
2022/06/08 05:09:00;;;;;;;38.97;35.38;;;16.70;99.90;;;;;;5001835;28;20558;-78
2022/06/08 05:11:28;;;;;;;35.65;32.30;;;16.50;99.90;;;;;;5004265;28;20419;-78
2022/06/08 05:13:55;;;;;;;38.33;34.92;;;16.60;99.90;;;;;;4989435;28;20038;-77
2022/06/08 05:16:23;;;;;;;38.20;34.70;;;16.50;99.90;;;;;;5004733;28;20044;-78
2022/06/08 05:18:54;;;;;;;36.88;33.55;;;16.60;99.90;;;;;;5020045;28;20041;-77
2022/06/08 05:21:22;;;;;;;36.00;32.70;;;16.50;99.90;;;;;;4989919;28;20042;-79
2022/06/08 05:23:50;;;;;;;35.80;32.65;;;16.60;99.90;;;;;;4989494;28;20177;-79
2022/06/08 05:26:29;;;;;;;36.83;33.67;;;16.90;99.90;;;;;;4990643;28;20143;-78
2022/06/08 05:28:57;;;;;;;36.75;33.42;;;17.10;99.90;;;;;;5003608;28;20041;-78
2022/06/08 05:31:30;;;;;;;36.25;32.92;;;17.00;99.90;;;;;;4995090;28;20050;-78
2022/06/08 05:33:57;;;;;;;36.97;33.65;;;17.10;99.90;;;;;;5005157;28;20117;-78
2022/06/08 05:36:27;;;;;;;37.38;33.97;;;17.20;99.90;;;;;;4988198;28;20501;-79
2022/06/08 05:38:56;;;;;;;37.92;34.65;;;17.30;99.90;;;;;;5004400;28;20056;-78
2022/06/08 05:41:29;;;;;;;38.53;35.10;;;17.10;99.90;;;;;;4993172;28;20073;-78
2022/06/08 05:43:56;;;;;;;38.45;34.75;;;16.90;99.90;;;;;;5016060;28;20060;-78
2022/06/08 05:46:24;;;;;;;40.13;36.15;;;16.90;99.90;;;;;;5003856;28;20041;-78
2022/06/08 05:48:57;;;;;;;38.92;35.33;;;16.70;99.90;;;;;;5018417;28;20092;-78
2022/06/08 05:51:24;;;;;;;39.20;35.55;;;16.60;99.90;;;;;;5004475;28;20070;-78
2022/06/08 05:53:51;;;;;;;38.63;35.13;;;16.60;99.90;;;;;;5004748;28;20104;-79
2022/06/08 05:56:18;;;;;;;38.65;35.08;;;16.60;99.90;;;;;;4987262;28;20053;-78
2022/06/08 05:58:48;;;;;;;39.28;35.78;;;17.00;99.90;;;;;;4987592;28;20065;-77
2022/06/08 06:01:15;;;;;;;42.58;38.67;;;17.10;99.90;;;;;;4983911;28;20143;-78
2022/06/08 06:03:42;;;;;;;41.88;38.08;;;17.10;99.90;;;;;;4985077;28;20340;-78
2022/06/08 06:06:10;;;;;;;40.42;36.95;;;17.20;99.90;;;;;;5004502;28;20077;-78
2022/06/08 06:08:37;;;;;;;39.55;36.13;;;17.30;99.90;;;;;;4987503;28;20129;-78
2022/06/08 06:11:10;;;;;;;41.08;37.38;;;17.50;99.90;;;;;;4993662;28;20050;-78
2022/06/08 06:13:42;;;;;;;42.47;38.78;;;17.40;99.90;;;;;;5004297;28;20050;-78
2022/06/08 06:16:15;;;;;;;41.33;37.42;;;17.20;99.90;;;;;;4988274;28;20084;-78
2022/06/08 06:18:42;;;;;;;41.35;37.58;;;17.20;99.90;;;;;;5005630;28;20061;-78
2022/06/08 06:21:20;;;;;;;40.22;36.53;;;17.00;99.90;;;;;;5007542;28;20077;-78
2022/06/08 06:24:06;;;;;;;40.85;37.08;;;17.00;99.90;;;;;;5013408;28;20553;-77
2022/06/08 06:26:36;;;;;;;37.67;34.33;;;17.10;99.90;;;;;;5008934;28;20080;-79
2022/06/08 06:29:22;;;;;;;;;;;17.20;99.90;;;;;;5008404;28;20461;-79
2022/06/08 06:32:07;;;;;;;36.60;33.70;;;17.60;99.90;;;;;;4994827;28;19929;-78
2022/06/08 06:34:47;;;;;;;38.88;35.25;;;17.90;99.90;;;;;;4994447;28;20053;-78
2022/06/08 06:37:14;;;;;;;38.38;35.05;;;18.00;99.90;;;;;;5025055;28;20046;-78
2022/06/08 06:39:42;;;;;;;36.53;33.88;;;18.10;99.90;;;;;;5006660;28;20045;-77
2022/06/08 06:42:31;;;;;;;36.38;33.67;;;18.40;99.90;;;;;;5001665;23;20043;-76
2022/06/08 06:45:17;;;;;;;36.95;34.25;;;18.50;99.90;;;;;;4978606;28;20042;-76
2022/06/08 06:47:49;;;;;;;37.83;34.97;;;18.90;99.90;;;;;;4980772;28;20537;-74
2022/06/08 06:50:25;;;;;;;34.65;32.17;;;19.00;99.90;;;;;;4967794;28;20050;-76
2022/06/08 06:52:55;;;;;;;36.03;33.53;;;19.20;99.90;;;;;;5001888;28;20050;-77
2022/06/08 06:55:28;;;;;;;34.10;31.80;;;19.50;99.90;;;;;;5000499;28;20045;-77
2022/06/08 06:58:00;;;;;;;31.98;29.98;;;19.50;99.90;;;;;;5000195;28;20266;-76
2022/06/08 07:00:33;;;;;;;32.38;30.38;;;19.40;99.90;;;;;;5000068;28;20110;-76
2022/06/08 07:03:04;;;;;;;31.60;29.70;;;19.50;99.90;;;;;;5015949;28;20050;-76
2022/06/08 07:05:35;;;;;;;31.45;29.55;;;19.60;99.90;;;;;;5000929;28;20057;-74
2022/06/08 07:08:05;;;;;;;32.40;30.40;;;19.70;99.90;;;;;;5000784;28;20521;-74
2022/06/08 07:10:32;;;;;;;30.95;29.05;;;19.40;99.90;;;;;;4983691;28;20042;-73
2022/06/08 07:12:59;;;;;;;29.73;27.77;;;19.50;99.90;;;;;;4988007;28;20067;-72
2022/06/08 07:15:27;;;;;;;28.70;26.92;;;19.50;99.90;;;;;;5002432;28;20096;-74
2022/06/08 07:17:54;;;;;;;27.52;25.92;;;19.80;99.90;;;;;;5004246;28;20057;-72
2022/06/08 07:20:25;;;;;;;27.88;26.27;;;19.90;99.90;;;;;;5003957;28;20050;-77
2022/06/08 07:22:53;;;;;;;27.40;25.77;;;20.10;99.90;;;;;;4983401;28;20126;-73
2022/06/08 07:25:20;;;;;;;26.58;25.05;;;20.30;99.90;;;;;;5001317;28;20050;-74
2022/06/08 07:27:47;;;;;;;26.88;25.35;;;20.50;99.90;;;;;;4982837;28;20041;-76
2022/06/08 07:30:14;;;;;;;25.88;24.50;;;20.60;99.90;;;;;;4991465;28;20068;-74
2022/06/08 07:32:42;;;;;;;28.15;26.52;;;20.60;99.90;;;;;;5000441;28;20058;-72
2022/06/08 07:35:11;;;;;;;28.30;26.65;;;20.70;99.90;;;;;;5000787;28;20037;-72
2022/06/08 07:37:38;;;;;;;26.90;25.50;;;20.70;99.90;;;;;;4999834;28;20050;-73
2022/06/08 07:40:05;;;;;;;26.63;25.13;;;20.70;99.90;;;;;;4995823;28;20057;-74
2022/06/08 07:42:32;;;;;;;26.45;25.15;;;20.60;99.90;;;;;;4991733;28;20054;-76
2022/06/08 07:44:59;;;;;;;28.75;27.25;;;20.60;99.90;;;;;;5000861;28;20076;-76
2022/06/08 07:47:26;;;;;;;28.45;26.95;;;20.80;99.90;;;;;;5001865;28;20395;-74
2022/06/08 07:49:53;;;;;;;28.75;27.13;;;21.10;99.90;;;;;;5001254;28;20127;-76
2022/06/08 07:52:21;;;;;;;29.05;27.45;;;21.00;99.90;;;;;;5000159;28;20734;-77
2022/06/08 07:54:49;;;;;;;27.92;26.33;;;20.80;99.90;;;;;;4985238;28;20104;-77
2022/06/08 07:57:25;;;;;;;29.25;27.65;;;20.90;99.90;;;;;;4991451;28;20050;-77
2022/06/08 07:59:53;;;;;;;30.67;28.95;;;20.90;99.90;;;;;;4999384;28;20042;-76
2022/06/08 08:02:20;;;;;;;28.73;27.02;;;21.00;99.90;;;;;;4999289;28;20046;-77
2022/06/08 08:04:47;;;;;;;28.35;26.73;;;21.10;99.90;;;;;;4998536;28;20056;-76
2022/06/08 08:07:16;;;;;;;28.60;27.00;;;21.30;99.90;;;;;;5001170;28;20053;-77
2022/06/08 08:09:44;;;;;;;28.13;26.63;;;21.50;99.90;;;;;;5001580;28;20058;-74
2022/06/08 08:12:12;;;;;;;28.75;27.15;;;21.50;99.90;;;;;;4995097;28;20040;-76
2022/06/08 08:14:39;;;;;;;28.67;27.08;;;21.30;99.90;;;;;;5001224;28;20467;-74
2022/06/08 08:17:07;;;;;;;28.23;26.63;;;21.20;99.90;;;;;;5001158;28;20323;-75
2022/06/08 08:19:38;;;;;;;29.23;27.63;;;21.10;99.90;;;;;;5016731;28;20056;-75
2022/06/08 08:22:06;;;;;;;28.05;26.55;;;21.20;99.90;;;;;;4999439;28;20072;-74
2022/06/08 08:24:33;;;;;;;28.55;27.05;;;21.30;99.90;;;;;;4969052;28;20058;-75
2022/06/08 08:27:01;;;;;;;29.98;28.38;;;21.20;99.90;;;;;;5012083;28;20046;-72
2022/06/08 08:29:28;;;;;;;29.08;27.48;;;21.50;99.90;;;;;;4999246;28;20033;-75
2022/06/08 08:31:55;;;;;;;31.98;30.17;;;21.50;99.90;;;;;;5000657;28;20096;-75
2022/06/08 08:34:22;;;;;;;30.20;28.40;;;21.50;99.90;;;;;;5000137;28;20046;-76
2022/06/08 08:36:49;;;;;;;29.92;28.23;;;21.60;99.90;;;;;;5001345;28;20050;-75
2022/06/08 08:39:16;;;;;;;28.50;26.92;;;21.60;99.90;;;;;;4993606;28;20050;-76
2022/06/08 08:44:44;;;;;;;27.17;25.77;;;21.50;99.90;;;;;;4985505;28;20324;-76
2022/06/08 08:47:28;;;;;;;28.08;26.48;;;21.50;99.90;;;;;;4982988;28;20239;-76
2022/06/08 08:50:00;;;;;;;27.67;26.27;;;21.30;99.90;;;;;;4980714;28;20112;-75
2022/06/08 08:53:00;;;;;;;29.73;28.13;;;21.40;99.90;;;;;;4980542;28;20391;-76
2022/06/08 08:55:47;;;;;;;27.77;26.27;;;21.30;99.90;;;;;;4994807;28;20049;-77
2022/06/08 08:58:20;;;;;;;26.95;25.55;;;21.40;99.90;;;;;;4988627;28;20054;-76
2022/06/08 09:00:55;;;;;;;27.70;26.20;;;21.40;99.90;;;;;;4999853;28;20045;-77
2022/06/08 09:03:28;;;;;;;28.27;26.73;;;21.80;99.90;;;;;;4999450;28;20065;-72
2022/06/08 09:06:24;;;;;;;29.10;27.25;;;22.20;99.90;;;;;;4999964;28;20422;-75
2022/06/08 09:08:55;;;;;;;26.63;25.33;;;22.20;99.90;;;;;;4996375;28;20133;-76
2022/06/08 09:11:30;;;;;;;27.92;26.42;;;22.50;99.90;;;;;;4989641;28;20042;-76
2022/06/08 09:14:11;;;;;;;27.10;25.80;;;22.60;99.90;;;;;;4983222;28;20530;-76
2022/06/08 09:16:43;;;;;;;25.38;24.08;;;22.70;99.90;;;;;;4997964;28;20104;-76
2022/06/08 09:19:32;;;;;;;27.40;25.90;;;22.80;99.90;;;;;;4998064;28;20054;-76
2022/06/08 09:22:02;;;;;;;26.80;25.50;;;22.10;99.90;;;;;;4995517;28;20149;-76
2022/06/08 09:24:32;;;;;;;25.48;24.27;;;22.00;99.90;;;;;;4986979;28;20050;-76
2022/06/08 09:27:24;;;;;;;24.30;23.20;;;22.20;99.90;;;;;;4993318;28;20092;-75
2022/06/08 09:29:56;;;;;;;25.58;23.95;;;22.40;99.90;;;;;;4991224;28;20050;-75
2022/06/08 09:32:55;;;;;;;24.92;23.70;;;22.80;99.90;;;;;;4998609;28;20052;-76
2022/06/08 09:35:45;;;;;;;25.98;24.75;;;23.20;99.90;;;;;;4982719;28;20426;-76
2022/06/08 09:38:14;;;;;;;24.88;23.65;;;23.20;99.90;;;;;;4967936;28;20038;-76
2022/06/08 09:40:44;;;;;;;24.20;23.10;;;23.00;99.90;;;;;;4972689;28;20104;-77
2022/06/08 09:43:23;;;;;;;22.23;21.13;;;23.60;99.90;;;;;;4977736;28;20049;-75
2022/06/08 09:46:08;;;;;;;23.00;21.98;;;23.70;99.90;;;;;;4986976;28;20137;-74
2022/06/08 09:52:21;;;;;;;26.45;25.10;;;23.70;99.90;;;;;;5000659;28;20097;-76
2022/06/08 09:54:48;;;;;;;24.33;23.13;;;23.70;99.90;;;;;;4974945;28;20060;-76
2022/06/08 09:57:52;;;;;;;24.48;23.27;;;23.70;99.90;;;;;;4996907;28;20042;-74
2022/06/08 10:00:48;;;;;;;26.48;25.17;;;23.80;99.90;;;;;;4979765;28;20049;-75
2022/06/08 10:03:20;;;;;;;23.25;22.15;;;24.20;99.90;;;;;;4968094;28;20054;-75
2022/06/08 10:05:54;;;;;;;23.20;22.05;;;23.70;99.90;;;;;;4983221;28;20042;-76
2022/06/08 10:08:28;;;;;;;23.80;22.52;;;23.30;99.90;;;;;;4998941;28;20045;-75
2022/06/08 10:11:34;;;;;;;25.80;24.58;;;23.30;99.90;;;;;;4995105;28;20050;-73
2022/06/08 10:14:09;;;;;;;25.77;24.38;;;22.80;99.90;;;;;;4978006;28;20053;-76
2022/06/08 10:16:42;;;;;;;25.83;24.42;;;22.60;99.90;;;;;;4986895;28;20046;-76
2022/06/08 10:19:19;;;;;;;24.45;23.00;;;22.30;99.90;;;;;;5000961;28;20053;-76
2022/06/08 10:21:48;;;;;;;23.70;22.38;;;22.10;99.90;;;;;;5000527;28;20042;-76
2022/06/08 10:24:27;;;;;;;22.98;21.77;;;21.80;99.90;;;;;;4995961;28;20057;-74
2022/06/08 10:27:02;;;;;;;23.80;22.40;;;21.50;99.90;;;;;;4990251;28;20045;-76
2022/06/08 10:30:00;;;;;;;23.27;22.02;;;21.30;99.90;;;;;;5002837;28;20412;-74
2022/06/08 10:32:32;;;;;;;23.20;21.92;;;20.80;99.90;;;;;;4998999;28;20042;-76
2022/06/08 10:35:21;;;;;;;25.05;23.73;;;20.50;99.90;;;;;;5000335;28;20481;-77
2022/06/08 10:37:50;;;;;;;27.85;26.23;;;20.50;99.90;;;;;;4999958;28;20054;-75
2022/06/08 10:40:29;;;;;;;27.17;25.65;;;20.40;99.90;;;;;;4995592;28;20053;-75
2022/06/08 10:42:56;;;;;;;24.70;23.30;;;20.30;99.90;;;;;;4978089;28;20562;-75
2022/06/08 10:45:23;;;;;;;24.08;22.77;;;20.40;99.90;;;;;;4968632;28;20051;-74
2022/06/08 10:48:27;;;;;;;24.90;23.40;;;20.50;99.90;;;;;;4992860;28;20667;-74
2022/06/08 10:51:09;;;;;;;23.38;21.98;;;20.30;99.90;;;;;;4999907;28;20042;-76
2022/06/08 10:56:49;;;;;;;24.58;23.25;;;20.20;99.90;;;;;;4983156;28;20106;-77
2022/06/08 10:59:30;;;;;;;25.20;23.73;;;20.20;99.90;;;;;;4988504;28;20080;-76
2022/06/08 11:02:12;;;;;;;25.52;24.15;;;20.10;99.90;;;;;;4979382;28;20718;-76
2022/06/08 11:05:05;;;;;;;25.38;23.77;;;20.20;99.90;;;;;;4978979;28;20112;-75
2022/06/08 11:08:00;;;;;;;25.20;23.63;;;20.20;99.90;;;;;;4955960;28;20054;-75
2022/06/08 11:10:51;;;;;;;25.45;24.05;;;20.30;99.90;;;;;;5000563;28;20153;-75
2022/06/08 11:13:22;;;;;;;25.42;24.02;;;20.30;99.90;;;;;;4999687;28;20042;-76
2022/06/08 11:16:10;;;;;;;24.88;23.67;;;20.40;99.90;;;;;;4999907;28;20455;-77
2022/06/08 11:18:53;;;;;;;24.90;23.73;;;20.20;99.90;;;;;;5002362;28;20112;-75
2022/06/08 11:21:28;;;;;;;23.95;22.75;;;20.30;99.90;;;;;;5000892;28;20061;-75
2022/06/08 11:23:59;;;;;;;24.00;22.85;;;20.30;99.90;;;;;;4982720;28;20072;-76
2022/06/08 11:26:37;;;;;;;23.17;22.08;;;20.20;99.90;;;;;;4982335;28;20141;-76
2022/06/08 11:29:39;;;;;;;22.70;21.50;;;20.20;99.90;;;;;;5001890;28;20485;-76
2022/06/08 11:32:21;;;;;;;23.38;22.17;;;20.10;99.90;;;;;;4959329;28;20039;-76
2022/06/08 11:35:12;;;;;;;24.23;22.95;;;20.20;99.90;;;;;;4961897;28;20089;-76
2022/06/08 11:37:57;;;;;;;23.85;22.55;;;20.30;99.90;;;;;;4982279;28;20128;-77
2022/06/08 11:40:29;;;;;;;22.40;21.20;;;20.50;99.90;;;;;;4993828;28;20053;-76
2022/06/08 11:43:15;;;;;;;22.35;21.25;;;20.60;99.90;;;;;;4980759;28;20057;-74
2022/06/08 11:45:55;;;;;;;26.70;25.30;;;20.80;99.90;;;;;;4980610;28;20077;-76
2022/06/08 11:48:26;;;;;;;22.83;21.65;;;21.20;99.90;;;;;;4964737;28;20058;-76
2022/06/08 11:50:58;;;;;;;21.60;20.42;;;21.60;99.90;;;;;;4998025;28;20050;-76
2022/06/08 11:53:28;;;;;;;20.70;19.70;;;21.90;99.90;;;;;;4993605;28;20056;-76
2022/06/08 11:56:07;;;;;;;21.35;20.27;;;21.70;99.90;;;;;;4987082;28;20053;-75
2022/06/08 11:58:35;;;;;;;20.75;19.55;;;22.00;99.90;;;;;;4988584;28;20140;-75
2022/06/08 12:01:15;;;;;;;20.30;19.20;;;22.00;99.90;;;;;;4989376;28;20050;-76
2022/06/08 12:03:48;;;;;;;20.25;19.25;;;21.90;99.90;;;;;;5000557;28;20053;-77
2022/06/08 12:06:22;;;;;;;21.70;20.50;;;21.90;99.90;;;;;;4999148;28;20837;-74
2022/06/08 12:08:54;;;;;;;20.55;19.55;;;21.90;99.90;;;;;;5001907;28;20494;-75
2022/06/08 12:11:30;;;;;;;22.02;20.83;;;21.80;99.90;;;;;;4982205;28;20073;-76
2022/06/08 12:14:15;;;;;;;20.77;19.67;;;21.90;99.90;;;;;;5000462;28;20045;-75
2022/06/08 12:17:17;;;;;;;21.58;20.45;;;21.70;99.90;;;;;;4999277;28;20046;-76
2022/06/08 12:19:48;;;;;;;21.20;20.10;;;21.60;99.90;;;;;;4988506;28;20054;-74
2022/06/08 12:22:33;;;;;;;22.25;21.00;;;21.70;99.90;;;;;;5043170;23;20122;-76
2022/06/08 12:25:09;;;;;;;21.25;20.10;;;21.70;99.90;;;;;;5014871;28;20505;-78
2022/06/08 12:27:55;;;;;;;21.23;20.23;;;21.50;99.90;;;;;;5003914;28;20060;-76
2022/06/08 12:30:27;;;;;;;21.65;20.55;;;21.40;99.90;;;;;;5019294;28;20337;-76
2022/06/08 12:32:57;;;;;;;20.65;19.52;;;21.40;99.90;;;;;;5024136;28;20148;-75
2022/06/08 12:35:38;;;;;;;21.15;19.85;;;21.40;99.90;;;;;;5051781;28;20041;-75
2022/06/08 12:38:24;;;;;;;21.38;20.08;;;21.50;99.90;;;;;;5027000;28;20398;-77
2022/06/08 12:41:17;;;;;;;20.55;19.45;;;21.40;99.90;;;;;;5015488;28;20056;-72
2022/06/08 12:43:50;;;;;;;21.58;20.42;;;21.30;99.90;;;;;;5012835;28;20429;-73
2022/06/08 12:46:25;;;;;;;21.25;20.23;;;21.40;99.90;;;;;;5019758;28;20042;-73
2022/06/08 12:48:58;;;;;;;21.92;20.77;;;21.40;99.90;;;;;;5002993;28;20325;-75
2022/06/08 12:51:29;;;;;;;23.25;21.95;;;21.40;99.90;;;;;;5042599;28;20045;-76
2022/06/08 12:53:57;;;;;;;22.83;21.73;;;21.20;99.90;;;;;;5038376;28;20049;-78
2022/06/08 12:56:25;;;;;;;22.42;21.33;;;21.00;99.90;;;;;;5042700;28;20041;-79
2022/06/08 12:58:53;;;;;;;24.13;22.80;;;20.90;99.90;;;;;;5017571;28;20058;-73
2022/06/08 13:01:21;;;;;;;23.48;22.13;;;20.80;99.90;;;;;;5009070;28;20140;-76
2022/06/08 13:03:49;;;;;;;23.23;22.02;;;20.80;99.90;;;;;;5021195;28;20053;-73
2022/06/08 13:06:16;;;;;;;22.88;21.67;;;20.80;99.90;;;;;;5007598;28;20061;-77
2022/06/08 13:08:43;;;;;;;23.77;22.42;;;20.70;99.90;;;;;;5019375;28;20060;-75
2022/06/08 13:11:19;;;;;;;23.20;21.90;;;20.70;99.90;;;;;;5008491;28;20045;-74
2022/06/08 13:13:47;;;;;;;23.15;21.95;;;20.70;99.90;;;;;;5019889;28;20136;-79
2022/06/08 13:16:17;;;;;;;23.10;21.90;;;20.70;99.90;;;;;;4993588;28;20253;-74